createdAt,value
2023-07-04T00:01:54.687Z,2.80
2023-07-04T00:04:22.307Z,3.15
2023-07-04T00:06:48.769Z,3.05
2023-07-04T00:09:15.981Z,2.70
2023-07-04T00:11:42.425Z,2.72
2023-07-04T00:14:08.928Z,3.03
2023-07-04T00:16:35.551Z,2.72
2023-07-04T00:19:05.026Z,2.50
2023-07-04T00:21:32.263Z,1.92
2023-07-04T00:23:58.748Z,2.20
2023-07-04T00:26:26.378Z,1.80
2023-07-04T00:28:53.513Z,2.05
2023-07-04T00:31:23.964Z,2.40
2023-07-04T00:33:51.137Z,2.42
2023-07-04T00:36:18.931Z,2.97
2023-07-04T00:38:49.922Z,2.38
2023-07-04T00:41:22.196Z,2.25
2023-07-04T00:44:08.532Z,2.60
2023-07-04T00:46:41.054Z,2.33
2023-07-04T00:49:19.898Z,1.95
2023-07-04T00:52:00.834Z,2.15
2023-07-04T00:54:30.920Z,2.40
2023-07-04T00:57:03.837Z,2.25
2023-07-04T00:59:32.503Z,2.40
2023-07-04T01:01:59.047Z,2.40
2023-07-04T01:04:25.628Z,2.40
2023-07-04T01:07:10.811Z,2.38
2023-07-04T01:09:39.469Z,2.10
2023-07-04T01:12:06.816Z,2.08
2023-07-04T01:14:33.272Z,2.15
2023-07-04T01:16:59.786Z,2.25
2023-07-04T01:19:29.267Z,2.30
2023-07-04T01:22:40.781Z,2.15
2023-07-04T01:25:15.309Z,2.15
2023-07-04T01:27:43.195Z,2.30
2023-07-04T01:30:14.015Z,3.05
2023-07-04T01:32:42.024Z,2.30
2023-07-04T01:35:12.141Z,2.88
2023-07-04T01:37:38.757Z,2.35
2023-07-04T01:40:08.609Z,3.08
2023-07-04T01:42:37.201Z,2.80
2023-07-04T01:45:06.160Z,2.80
2023-07-04T01:47:35.001Z,3.15
2023-07-04T01:50:02.227Z,2.80
2023-07-04T01:52:31.304Z,3.42
2023-07-04T01:54:57.911Z,3.55
2023-07-04T01:57:25.141Z,3.53
2023-07-04T01:59:51.792Z,3.22
2023-07-04T02:02:18.755Z,3.72
2023-07-04T02:04:45.207Z,2.80
2023-07-04T02:07:12.547Z,3.35
2023-07-04T02:09:39.101Z,3.42
2023-07-04T02:12:05.994Z,3.17
2023-07-04T02:14:32.435Z,3.28
2023-07-04T02:16:58.925Z,3.50
2023-07-04T02:19:25.379Z,2.70
2023-07-04T02:21:51.838Z,3.47
2023-07-04T02:24:18.338Z,3.28
2023-07-04T02:26:44.793Z,3.45
2023-07-04T02:29:11.216Z,3.20
2023-07-04T02:31:37.769Z,3.00
2023-07-04T02:34:04.256Z,3.78
2023-07-04T02:36:30.697Z,3.70
2023-07-04T02:38:57.118Z,4.47
2023-07-04T02:41:23.583Z,3.35
2023-07-04T02:43:50.956Z,3.65
2023-07-04T02:46:17.501Z,3.83
2023-07-04T02:48:43.984Z,3.92
2023-07-04T02:51:10.403Z,4.15
2023-07-04T02:53:36.812Z,3.75
2023-07-04T02:56:03.379Z,3.88
2023-07-04T02:58:29.837Z,3.47
2023-07-04T03:00:56.509Z,3.15
2023-07-04T03:03:23.510Z,3.42
2023-07-04T03:05:50.429Z,3.35
2023-07-04T03:08:17.252Z,3.55
2023-07-04T03:10:48.692Z,4.15
2023-07-04T03:13:15.349Z,4.03
2023-07-04T03:15:42.530Z,4.85
2023-07-04T03:18:09.291Z,3.47
2023-07-04T03:20:35.826Z,3.88
2023-07-04T03:23:02.375Z,3.92
2023-07-04T03:25:28.804Z,3.53
2023-07-04T03:27:55.228Z,3.60
2023-07-04T03:30:22.642Z,3.83
2023-07-04T03:32:49.154Z,4.68
2023-07-04T03:35:15.645Z,3.42
2023-07-04T03:37:42.190Z,3.78
2023-07-04T03:40:10.927Z,4.28
2023-07-04T03:42:38.966Z,4.13
2023-07-04T03:45:06.867Z,3.85
2023-07-04T03:47:33.577Z,4.38
2023-07-04T03:50:00.215Z,3.88
2023-07-04T03:52:26.808Z,5.15
2023-07-04T03:54:54.030Z,3.63
2023-07-04T03:57:20.609Z,4.50
2023-07-04T03:59:47.019Z,4.03
2023-07-04T04:02:13.450Z,4.00
2023-07-04T04:04:42.784Z,3.90
2023-07-04T04:07:10.817Z,3.83
2023-07-04T04:09:38.326Z,4.10
2023-07-04T04:12:06.238Z,4.20
2023-07-04T04:14:33.574Z,3.67
2023-07-04T04:17:00.245Z,3.47
2023-07-04T04:19:27.451Z,5.15
2023-07-04T04:21:54.264Z,3.90
2023-07-04T04:24:21.845Z,3.95
2023-07-04T04:26:48.871Z,4.65
2023-07-04T04:29:18.203Z,4.18
2023-07-04T04:31:48.388Z,4.20
2023-07-04T04:34:18.137Z,3.33
2023-07-04T04:36:44.947Z,4.22
2023-07-04T04:39:11.388Z,3.55
2023-07-04T04:41:37.809Z,4.07
2023-07-04T04:44:05.966Z,4.00
2023-07-04T04:46:33.359Z,4.32
2023-07-04T04:49:03.734Z,3.75
2023-07-04T04:51:31.810Z,4.07
2023-07-04T04:53:58.786Z,3.42
2023-07-04T04:56:25.388Z,4.32
2023-07-04T04:58:53.346Z,4.10
2023-07-04T05:01:23.795Z,4.13
2023-07-04T05:03:53.518Z,4.43
2023-07-04T05:06:25.069Z,4.95
2023-07-04T05:08:51.977Z,5.82
2023-07-04T05:11:18.591Z,4.80
2023-07-04T05:13:48.934Z,4.03
2023-07-04T05:16:18.128Z,5.05
2023-07-04T05:18:47.070Z,5.65
2023-07-04T05:21:16.242Z,4.20
2023-07-04T05:23:44.253Z,3.88
2023-07-04T05:26:30.991Z,5.03
2023-07-04T05:28:59.600Z,3.55
2023-07-04T05:31:28.532Z,3.88
2023-07-04T05:33:56.016Z,4.28
2023-07-04T05:36:27.769Z,4.00
2023-07-04T05:38:56.001Z,3.75
2023-07-04T05:41:24.358Z,3.90
2023-07-04T05:43:51.008Z,5.20
2023-07-04T05:46:18.788Z,4.53
2023-07-04T05:48:45.772Z,3.97
2023-07-04T05:51:14.106Z,4.65
2023-07-04T05:53:42.313Z,4.68
2023-07-04T05:56:23.429Z,4.10
2023-07-04T05:58:51.740Z,4.35
2023-07-04T06:01:43.226Z,4.35
2023-07-04T06:04:11.586Z,4.32
2023-07-04T06:06:42.742Z,4.20
2023-07-04T06:09:12.100Z,5.38
2023-07-04T06:11:40.334Z,5.20
2023-07-04T06:14:07.609Z,3.92
2023-07-04T06:16:37.655Z,5.03
2023-07-04T06:19:04.149Z,5.10
2023-07-04T06:21:43.298Z,4.72
2023-07-04T06:24:11.325Z,4.97
2023-07-04T06:26:37.941Z,5.00
2023-07-04T06:29:04.507Z,5.43
2023-07-04T06:31:31.152Z,5.35
2023-07-04T06:33:57.776Z,4.00
2023-07-04T06:36:24.834Z,4.45
2023-07-04T06:38:51.468Z,4.82
2023-07-04T06:41:18.381Z,5.97
2023-07-04T06:43:46.329Z,5.13
2023-07-04T06:46:14.912Z,5.80
2023-07-04T06:48:41.366Z,5.45
2023-07-04T06:51:07.718Z,6.20
2023-07-04T06:53:35.616Z,5.53
2023-07-04T06:56:13.794Z,6.03
2023-07-04T06:58:52.797Z,6.85
2023-07-04T07:01:20.544Z,6.60
2023-07-04T07:03:47.517Z,5.80
2023-07-04T07:06:14.531Z,6.57
2023-07-04T07:08:41.721Z,6.07
2023-07-04T07:11:11.672Z,5.88
2023-07-04T07:13:39.341Z,5.50
2023-07-04T07:16:11.686Z,5.90
2023-07-04T07:18:40.603Z,5.28
2023-07-04T07:21:09.713Z,5.72
2023-07-04T07:23:37.570Z,5.85
2023-07-04T07:26:06.294Z,6.47
2023-07-04T07:28:36.023Z,5.88
2023-07-04T07:31:33.800Z,5.72
2023-07-04T07:34:01.656Z,4.82
2023-07-04T07:36:38.802Z,5.45
2023-07-04T07:39:07.170Z,5.85
2023-07-04T07:41:37.669Z,4.75
2023-07-04T07:44:06.751Z,5.25
2023-07-04T07:46:33.456Z,5.70
2023-07-04T07:48:59.922Z,5.25
2023-07-04T07:51:27.489Z,6.00
2023-07-04T07:53:54.683Z,5.05
2023-07-04T07:56:23.230Z,6.07
2023-07-04T07:58:49.775Z,5.13
2023-07-04T08:01:20.015Z,4.70
2023-07-04T08:03:46.992Z,4.45
2023-07-04T08:06:27.760Z,5.63
2023-07-04T08:08:56.031Z,5.18
2023-07-04T08:11:23.526Z,4.45
2023-07-04T08:13:50.696Z,4.43
2023-07-04T08:16:19.896Z,4.88
2023-07-04T08:18:46.704Z,3.80
2023-07-04T08:21:13.397Z,5.18
2023-07-04T08:23:39.817Z,4.72
2023-07-04T08:26:06.317Z,3.17
2023-07-04T08:28:32.752Z,4.38
2023-07-04T08:31:06.625Z,3.97
2023-07-04T08:33:34.004Z,3.78
2023-07-04T08:36:08.046Z,3.83
2023-07-04T08:38:34.608Z,3.60
2023-07-04T08:41:01.615Z,4.78
2023-07-04T08:43:35.246Z,4.28
2023-07-04T08:46:07.053Z,4.25
2023-07-04T08:48:33.887Z,3.85
2023-07-04T08:51:03.925Z,3.58
2023-07-04T08:53:31.337Z,5.18
2023-07-04T08:56:17.585Z,4.25
2023-07-04T08:59:02.757Z,3.40
2023-07-04T09:01:55.765Z,2.92
2023-07-04T09:04:31.688Z,3.45
2023-07-04T09:07:20.797Z,3.35
2023-07-04T09:10:15.291Z,3.80
2023-07-04T09:12:41.946Z,3.65
2023-07-04T09:15:23.778Z,3.20
2023-07-04T09:20:52.955Z,2.90
2023-07-04T09:23:23.398Z,2.63
2023-07-04T09:25:52.126Z,3.22
2023-07-04T09:28:18.601Z,2.88
2023-07-04T09:30:46.920Z,3.15
2023-07-04T09:33:16.476Z,3.20
2023-07-04T09:35:43.673Z,3.28
2023-07-04T09:38:10.173Z,3.28
2023-07-04T09:40:41.231Z,2.63
2023-07-04T09:43:10.150Z,2.50
2023-07-04T09:45:36.790Z,3.22
2023-07-04T09:48:04.862Z,3.00
2023-07-04T09:50:33.255Z,2.90
2023-07-04T09:53:10.502Z,2.90
2023-07-04T09:55:39.027Z,2.50
2023-07-04T09:58:24.938Z,2.80
2023-07-04T10:01:09.559Z,2.85
2023-07-04T10:03:42.566Z,2.75
2023-07-04T10:06:10.257Z,2.25
2023-07-04T10:08:56.957Z,2.25
2023-07-04T10:11:27.928Z,2.33
2023-07-04T10:14:08.652Z,2.63
2023-07-04T10:16:36.078Z,2.03
2023-07-04T10:19:04.784Z,2.58
2023-07-04T10:21:31.221Z,2.28
2023-07-04T10:23:59.711Z,2.63
2023-07-04T10:26:26.256Z,2.25
2023-07-04T10:28:53.387Z,2.50
2023-07-04T10:31:22.742Z,2.83
2023-07-04T10:33:58.048Z,2.22
2023-07-04T10:36:29.888Z,2.45
2023-07-04T10:38:59.980Z,2.80
2023-07-04T10:41:33.575Z,2.28
2023-07-04T10:44:04.141Z,2.50
2023-07-04T10:46:34.212Z,2.50
2023-07-04T10:49:07.684Z,2.60
2023-07-04T10:51:40.318Z,2.90
2023-07-04T10:54:09.092Z,2.92
2023-07-04T10:56:36.233Z,2.10
2023-07-04T10:59:10.195Z,2.65
2023-07-04T11:01:47.180Z,2.67
2023-07-04T11:04:27.523Z,2.30
2023-07-04T11:07:00.042Z,2.03
2023-07-04T11:09:27.671Z,2.30
2023-07-04T11:12:02.578Z,2.78
2023-07-04T11:14:31.177Z,2.60
2023-07-04T11:17:03.004Z,3.00
2023-07-04T11:19:31.278Z,2.33
2023-07-04T11:22:08.884Z,3.13
2023-07-04T11:24:51.009Z,2.80
2023-07-04T11:27:26.152Z,2.40
2023-07-04T11:29:57.983Z,2.75
2023-07-04T11:32:27.515Z,2.65
2023-07-04T11:35:15.688Z,2.70
2023-07-04T11:37:44.346Z,2.60
2023-07-04T11:40:25.240Z,2.50
2023-07-04T11:43:01.171Z,2.28
2023-07-04T11:45:30.695Z,2.00
2023-07-04T11:48:02.245Z,2.63
2023-07-04T11:50:35.600Z,2.97
2023-07-04T11:53:30.409Z,2.15
2023-07-04T11:56:18.021Z,2.58
2023-07-04T11:58:46.143Z,2.60
2023-07-04T12:01:15.770Z,1.98
2023-07-04T12:03:54.382Z,2.15
2023-07-04T12:06:37.102Z,2.22
2023-07-04T12:09:03.928Z,2.42
2023-07-04T12:11:43.683Z,2.63
2023-07-04T12:14:12.571Z,2.10
2023-07-04T12:16:39.173Z,2.10
2023-07-04T12:19:06.026Z,2.80
2023-07-04T12:21:33.904Z,2.28
2023-07-04T12:24:04.498Z,2.20
2023-07-04T12:26:33.499Z,2.60
2023-07-04T12:29:16.153Z,2.40
2023-07-04T12:31:43.310Z,2.20
2023-07-04T12:34:11.463Z,2.28
2023-07-04T12:36:44.975Z,2.40
2023-07-04T12:39:15.213Z,2.75
2023-07-04T12:41:43.969Z,2.42
2023-07-04T12:51:44.824Z,2.67
2023-07-04T12:54:12.226Z,3.13
2023-07-04T12:56:42.312Z,2.92
2023-07-04T12:59:31.928Z,2.80
2023-07-04T13:01:58.577Z,3.05
2023-07-04T13:04:25.162Z,2.88
2023-07-04T13:06:52.345Z,2.80
2023-07-04T13:09:20.507Z,3.58
2023-07-04T13:11:47.245Z,3.53
2023-07-04T13:14:13.706Z,3.40
2023-07-04T13:16:40.651Z,3.42
2023-07-04T13:19:07.137Z,3.60
2023-07-04T13:21:37.316Z,3.17
2023-07-04T13:26:42.008Z,3.10
2023-07-04T13:34:22.675Z,3.15
2023-07-04T13:37:00.902Z,3.28
2023-07-04T13:41:59.216Z,3.55
2023-07-04T13:46:55.238Z,3.58
2023-07-04T13:49:22.269Z,3.42
2023-07-04T13:51:48.720Z,4.05
2023-07-04T13:54:15.169Z,3.75
2023-07-04T13:56:41.738Z,4.25
2023-07-04T13:59:08.175Z,4.45
2023-07-04T14:06:33.638Z,3.85
2023-07-04T14:09:00.148Z,4.10
2023-07-04T14:11:26.582Z,4.72
2023-07-04T14:13:56.594Z,3.90
2023-07-04T14:21:25.095Z,4.43
2023-07-04T14:23:51.710Z,4.63
2023-07-04T14:26:22.136Z,4.78
2023-07-04T14:28:50.799Z,3.97
2023-07-04T14:31:17.415Z,4.05
2023-07-04T14:33:43.911Z,4.32
2023-07-04T14:36:10.440Z,3.83
2023-07-04T14:38:37.260Z,4.22
2023-07-04T14:43:37.453Z,4.70
2023-07-04T14:46:07.167Z,4.15
2023-07-04T14:48:34.417Z,4.53
2023-07-04T14:51:02.642Z,4.50
2023-07-04T14:53:29.111Z,5.40
2023-07-04T14:55:59.639Z,4.85
2023-07-04T14:58:26.317Z,4.95
2023-07-04T15:00:55.256Z,4.85
2023-07-04T15:03:22.047Z,5.05
2023-07-04T15:05:48.520Z,5.82
2023-07-04T15:08:15.532Z,5.45
2023-07-04T15:10:45.563Z,5.10
2023-07-04T15:13:12.116Z,5.10
2023-07-04T15:15:38.615Z,6.43
2023-07-04T15:18:05.112Z,6.10
2023-07-04T15:20:31.670Z,5.72
2023-07-04T15:22:58.165Z,5.70
2023-07-04T15:25:24.585Z,6.32
2023-07-04T15:27:51.016Z,5.53
2023-07-04T15:30:17.452Z,6.35
2023-07-04T15:32:44.996Z,5.85
2023-07-04T15:37:38.399Z,5.57
2023-07-04T15:40:05.907Z,6.13
2023-07-04T15:42:33.503Z,6.45
2023-07-04T15:45:00.586Z,6.32
2023-07-04T15:47:27.620Z,6.13
2023-07-04T15:49:54.182Z,6.07
2023-07-04T15:52:21.241Z,6.00
2023-07-04T15:54:47.688Z,6.93
2023-07-04T15:57:14.100Z,6.65
2023-07-04T15:59:40.626Z,6.72
2023-07-04T16:02:07.069Z,6.35
2023-07-04T16:04:33.722Z,6.95
2023-07-04T16:07:02.077Z,6.07
2023-07-04T16:09:28.592Z,6.45
2023-07-04T16:11:55.004Z,6.57
2023-07-04T16:14:21.456Z,7.22
2023-07-04T16:16:48.016Z,6.78
2023-07-04T16:19:14.495Z,6.45
2023-07-04T16:21:40.901Z,6.35
2023-07-04T16:24:07.441Z,6.15
2023-07-04T16:26:34.484Z,6.90
2023-07-04T16:29:01.006Z,6.72
2023-07-04T16:31:27.507Z,6.93
2023-07-04T16:33:53.945Z,7.45
2023-07-04T16:36:20.449Z,6.82
2023-07-04T16:38:46.872Z,7.38
2023-07-04T16:41:13.992Z,7.97
2023-07-04T16:43:41.069Z,7.30
2023-07-04T16:46:08.206Z,6.28
2023-07-04T16:48:35.423Z,6.93
2023-07-04T16:51:02.053Z,7.85
2023-07-04T16:53:28.891Z,7.75
2023-07-04T16:56:00.859Z,6.97
2023-07-04T17:00:54.621Z,6.18
2023-07-04T17:03:21.306Z,6.55
2023-07-04T17:05:49.309Z,6.80
2023-07-04T17:08:15.812Z,7.10
2023-07-04T17:10:50.014Z,6.95
2023-07-04T17:13:31.918Z,6.85
2023-07-04T17:16:03.128Z,7.45
2023-07-04T17:18:29.610Z,6.10
2023-07-04T17:20:56.507Z,7.10
2023-07-04T17:23:22.908Z,6.93
2023-07-04T17:25:50.815Z,6.70
2023-07-04T17:28:18.044Z,6.63
2023-07-04T17:30:44.869Z,6.65
2023-07-04T17:33:11.322Z,6.82
2023-07-04T17:35:47.701Z,6.82
2023-07-04T17:38:17.553Z,6.93
2023-07-04T17:40:43.976Z,6.68
2023-07-04T17:43:11.933Z,6.75
2023-07-04T17:45:38.783Z,6.30
2023-07-04T17:48:05.382Z,6.43
2023-07-04T17:50:32.144Z,7.72
2023-07-04T17:52:58.557Z,7.38
2023-07-04T17:55:26.482Z,7.05
2023-07-04T17:57:55.612Z,6.63
2023-07-04T18:00:22.251Z,7.00
2023-07-04T18:02:49.532Z,6.90
2023-07-04T18:05:16.069Z,7.00
2023-07-04T18:07:42.503Z,6.75
2023-07-04T18:10:09.890Z,6.93
2023-07-04T18:12:36.339Z,7.03
2023-07-04T18:15:02.789Z,6.63
2023-07-04T18:17:31.125Z,7.00
2023-07-04T18:19:59.590Z,7.22
2023-07-04T18:22:26.662Z,6.68
2023-07-04T18:24:54.684Z,6.13
2023-07-04T18:27:21.522Z,7.07
2023-07-04T18:29:47.947Z,6.47
2023-07-04T18:32:14.472Z,7.10
2023-07-04T18:34:40.906Z,6.38
2023-07-04T18:37:07.345Z,6.65
2023-07-04T18:39:33.792Z,7.63
2023-07-04T18:42:00.306Z,6.65
2023-07-04T18:44:26.862Z,6.88
2023-07-04T18:46:54.461Z,6.63
2023-07-04T18:49:25.564Z,8.07
2023-07-04T18:51:53.578Z,7.22
2023-07-04T18:54:20.135Z,7.18
2023-07-04T18:56:47.284Z,7.30
2023-07-04T18:59:14.885Z,7.18
2023-07-04T19:01:45.019Z,6.70
2023-07-04T19:04:12.070Z,7.30
2023-07-04T19:06:38.862Z,6.63
2023-07-04T19:09:05.790Z,7.40
2023-07-04T19:11:38.492Z,7.28
2023-07-04T19:14:09.495Z,6.90
2023-07-04T19:16:56.690Z,7.75
2023-07-04T19:19:25.923Z,7.63
2023-07-04T19:21:57.299Z,7.15
2023-07-04T19:24:26.038Z,6.70
2023-07-04T19:26:52.762Z,7.38
2023-07-04T19:29:19.725Z,6.68
2023-07-04T19:31:53.566Z,6.95
2023-07-04T19:34:23.079Z,6.85
2023-07-04T19:36:50.521Z,6.88
2023-07-04T19:39:16.952Z,7.80
2023-07-04T19:41:43.723Z,6.70
2023-07-04T19:44:13.304Z,7.40
2023-07-04T19:46:39.857Z,7.97
2023-07-04T19:49:06.333Z,8.13
2023-07-04T19:51:32.810Z,8.27
2023-07-04T19:54:02.016Z,7.82
2023-07-04T19:56:31.507Z,8.60
2023-07-04T19:58:58.190Z,8.40
2023-07-04T20:01:27.327Z,8.55
2023-07-04T20:03:54.237Z,8.73
2023-07-04T20:06:22.114Z,8.75
2023-07-04T20:08:50.074Z,8.88
2023-07-04T20:11:16.927Z,9.15
2023-07-04T20:13:44.970Z,8.80
2023-07-04T20:16:15.989Z,8.90
2023-07-04T20:18:42.797Z,9.85
2023-07-04T20:21:09.907Z,8.88
2023-07-04T20:23:36.697Z,8.93
2023-07-04T20:26:04.182Z,8.70
2023-07-04T20:28:31.181Z,8.40
2023-07-04T20:31:00.030Z,8.70
2023-07-04T20:33:33.647Z,9.30
2023-07-04T20:36:00.814Z,9.55
2023-07-04T20:38:27.308Z,10.15
2023-07-04T20:40:53.946Z,10.23
2023-07-04T20:43:21.107Z,10.13
2023-07-04T20:45:47.575Z,10.75
2023-07-04T20:48:14.430Z,10.48
2023-07-04T20:50:47.733Z,9.85
2023-07-04T20:53:14.965Z,11.20
2023-07-04T20:55:42.523Z,11.32
2023-07-04T20:58:09.536Z,11.80
2023-07-04T21:00:38.436Z,12.48
2023-07-04T21:03:07.122Z,11.73
2023-07-04T21:05:33.955Z,12.65
2023-07-04T21:08:00.445Z,11.45
2023-07-04T21:10:33.032Z,11.13
2023-07-04T21:13:00.226Z,11.30
2023-07-04T21:15:28.037Z,12.00
2023-07-04T21:17:55.921Z,12.25
2023-07-04T21:20:23.545Z,12.07
2023-07-04T21:22:50.022Z,12.02
2023-07-04T21:25:17.194Z,12.32
2023-07-04T21:27:43.771Z,11.43
2023-07-04T21:30:11.045Z,12.13
2023-07-04T21:32:37.987Z,13.05
2023-07-04T21:35:04.970Z,12.48
2023-07-04T21:37:31.416Z,12.35
2023-07-04T21:39:57.943Z,12.23
2023-07-04T21:42:24.460Z,11.63
2023-07-04T21:44:54.494Z,11.90
2023-07-04T21:47:21.152Z,12.93
2023-07-04T21:49:49.966Z,12.52
2023-07-04T21:52:17.249Z,11.77
2023-07-04T21:54:45.391Z,12.20
2023-07-04T21:57:12.188Z,12.70
2023-07-04T21:59:38.668Z,11.93
2023-07-04T22:02:05.563Z,13.10
2023-07-04T22:04:32.028Z,10.98
2023-07-04T22:06:59.465Z,13.40
2023-07-04T22:09:26.527Z,12.60
2023-07-04T22:11:53.028Z,12.07
2023-07-04T22:14:35.759Z,11.98
2023-07-04T22:17:05.224Z,11.05
2023-07-04T22:19:31.964Z,12.27
2023-07-04T22:21:58.627Z,12.40
2023-07-04T22:24:26.198Z,12.10
2023-07-04T22:26:52.715Z,12.52
2023-07-04T22:29:19.171Z,12.90
2023-07-04T22:31:45.755Z,13.20
2023-07-04T22:34:12.690Z,12.82
2023-07-04T22:36:39.709Z,14.35
2023-07-04T22:39:08.347Z,13.00
2023-07-04T22:41:34.834Z,12.48
2023-07-04T22:44:01.266Z,13.32
2023-07-04T22:46:30.134Z,13.02
2023-07-04T22:48:57.195Z,13.68
2023-07-04T22:51:23.791Z,12.93
2023-07-04T22:53:50.768Z,13.13
2023-07-04T22:56:17.209Z,12.57
2023-07-04T22:58:43.668Z,14.55
2023-07-04T23:01:16.488Z,13.23
2023-07-04T23:03:43.224Z,13.00
2023-07-04T23:06:10.620Z,12.45
2023-07-04T23:08:37.136Z,12.10
2023-07-04T23:11:03.722Z,12.48
2023-07-04T23:13:30.542Z,12.57
2023-07-04T23:16:06.089Z,12.25
2023-07-04T23:18:32.785Z,11.88
2023-07-04T23:20:59.289Z,12.52
2023-07-04T23:23:26.381Z,12.85
2023-07-04T23:25:53.333Z,12.75
2023-07-04T23:28:20.078Z,12.32
2023-07-04T23:30:46.561Z,12.55
2023-07-04T23:33:13.064Z,11.75
2023-07-04T23:35:39.479Z,11.25
2023-07-04T23:38:05.914Z,11.88
2023-07-04T23:40:32.552Z,12.50
2023-07-04T23:42:58.961Z,11.77
2023-07-04T23:45:25.407Z,11.70
2023-07-04T23:47:51.844Z,12.25
2023-07-04T23:50:18.392Z,11.45
2023-07-04T23:52:44.836Z,11.38
2023-07-04T23:55:11.265Z,11.48
2023-07-04T23:57:37.697Z,11.73
